Lord Nelson — GHJV — position and weather

sailwx.info

Track history (hours):
 
Tides and Currents Weather Stations Pressure Air Temp Water Temp Dewpoint Dewpoint Depression Visibility Wind Speed Wind Dir Waves Ship Positions

Lord Nelson (United Kingdom)

Ship's website: http://www.jst.org.uk/

Last reported at 2017-Apr-24 05:30 UTC. Time now 2017-Apr-24 05:31 UTC.
Position N 54°42' E 000°09'.

Length 54.7 m; beam 9 m; draft 4.1 m.

Type: Sailing vessel. MMSI: 232003690.

Date/timePositionNaut miles runAvg speedWind from/ knotsBaromVisibWave heightAir tempDewpointWater temp
2017-Apr-24 05:30N 54°42' E 000°09'4 8.6
2017-Apr-24 04:59N 54°46' E 000°06'4 8.9
2017-Apr-24 04:29N 54°50' E 000°03'4 8.9
2017-Apr-24 03:59N 54°54' W 000°01'135 8.2
2017-Apr-23 11:36N 56°55' W 001°44'3 8.7
2017-Apr-23 11:17N 56°58' W 001°47'3 8.7
2017-Apr-23 10:53N 57°01' W 001°51'4 8.7
2017-Apr-23 10:28N 57°04' W 001°54'4 8.6
2017-Apr-23 10:00N 57°07' W 001°57'4 8.0
2017-Apr-23 09:29N 57°09' W 002°04'1 1.3
2017-Apr-23 09:00N 57°09' W 002°05'0 0.0
2017-Apr-23 08:30N 57°09' W 002°05'0 0.0
2017-Apr-23 08:00N 57°09' W 002°05'0 0.0
2017-Apr-23 07:30N 57°09' W 002°05'0 0.0
2017-Apr-23 07:00N 57°09' W 002°05'0 0.0
2017-Apr-23 06:30N 57°09' W 002°05'0 0.0
2017-Apr-23 06:00N 57°09' W 002°05'0 0.0
2017-Apr-23 05:30N 57°09' W 002°05'0 0.0
2017-Apr-23 05:00N 57°09' W 002°05'0 0.0
2017-Apr-23 04:30N 57°09' W 002°05'0 0.0
2017-Apr-23 04:00N 57°09' W 002°05'0 0.0
2017-Apr-23 03:27N 57°09' W 002°05'0 0.0
2017-Apr-23 03:00N 57°09' W 002°05'0 0.0
2017-Apr-23 02:30N 57°09' W 002°05'0 0.0
2017-Apr-23 02:00N 57°09' W 002°05'0 0.0
2017-Apr-23 01:30N 57°09' W 002°05'0 0.0
2017-Apr-23 01:00N 57°09' W 002°05'0 0.0
2017-Apr-23 00:30N 57°09' W 002°05'0 0.0
2017-Apr-23 00:00N 57°09' W 002°05'0 0.0
2017-Apr-22 23:30N 57°09' W 002°05'0 0.0
2017-Apr-22 23:00N 57°09' W 002°05'0 0.0
2017-Apr-22 22:30N 57°09' W 002°05'0 0.0
2017-Apr-22 22:00N 57°09' W 002°05'0 0.0
2017-Apr-22 21:30N 57°09' W 002°05'0 0.0
2017-Apr-22 21:00N 57°09' W 002°05'0 0.0
2017-Apr-22 20:30N 57°09' W 002°05'0 0.0
2017-Apr-22 20:00N 57°09' W 002°05'0 0.0
2017-Apr-22 19:30N 57°09' W 002°05'0 0.0
2017-Apr-22 19:00N 57°09' W 002°05'0 0.0
2017-Apr-22 18:30N 57°09' W 002°05'0 0.0
2017-Apr-22 18:00N 57°09' W 002°05'0 0.0
2017-Apr-22 17:30N 57°09' W 002°05'0 0.0
2017-Apr-22 17:00N 57°09' W 002°05'0 0.0
2017-Apr-22 16:30N 57°09' W 002°05'0 0.0
2017-Apr-22 16:00N 57°09' W 002°05'0 0.0
2017-Apr-22 15:30N 57°09' W 002°05'0 0.0
2017-Apr-22 15:00N 57°09' W 002°05'0 0.0
2017-Apr-22 14:30N 57°09' W 002°05'0 0.0
2017-Apr-22 13:29N 57°09' W 002°05'0 0.0
2017-Apr-22 12:59N 57°09' W 002°05'0 0.0
2017-Apr-22 12:29N 57°09' W 002°05'0 0.0
2017-Apr-22 11:59N 57°09' W 002°05'0 0.0
2017-Apr-22 11:29N 57°09' W 002°05'0 0.0
2017-Apr-22 10:59N 57°09' W 002°05'0 0.0
2017-Apr-22 10:29N 57°09' W 002°05'0 0.0
2017-Apr-22 09:59N 57°09' W 002°05'0 0.0
2017-Apr-22 09:29N 57°09' W 002°05'0 0.0
2017-Apr-22 08:59N 57°09' W 002°05'0 0.0
2017-Apr-22 08:29N 57°09' W 002°05'0 0.0
2017-Apr-22 07:59N 57°09' W 002°05'0 0.0
2017-Apr-22 07:29N 57°09' W 002°05'0 0.0
2017-Apr-22 06:59N 57°09' W 002°05'0 0.0
2017-Apr-22 06:26N 57°09' W 002°05'0 0.0
2017-Apr-22 05:59N 57°09' W 002°05'0 0.0
2017-Apr-22 05:29N 57°09' W 002°05'0 0.0
2017-Apr-22 04:59N 57°09' W 002°05'0 0.0
2017-Apr-22 04:29N 57°09' W 002°05'0 0.0
2017-Apr-22 03:59N 57°09' W 002°05'0 0.0
2017-Apr-22 03:29N 57°09' W 002°05'0 0.0
2017-Apr-22 02:59N 57°09' W 002°05'0 0.0
2017-Apr-22 02:29N 57°09' W 002°05'0 0.0
2017-Apr-22 01:59N 57°09' W 002°05'0 0.0
2017-Apr-22 01:29N 57°09' W 002°05'0 0.0
2017-Apr-22 00:59N 57°09' W 002°05'0 0.0
2017-Apr-22 00:29N 57°09' W 002°05'0 0.0
2017-Apr-21 23:59N 57°09' W 002°05'0 0.0
2017-Apr-21 23:29N 57°09' W 002°05'0 0.0
2017-Apr-21 22:59N 57°09' W 002°05'0 0.0
2017-Apr-21 22:29N 57°09' W 002°05'0 0.0
2017-Apr-21 21:59N 57°09' W 002°05'0 0.0
2017-Apr-21 21:29N 57°09' W 002°05'0 0.0
2017-Apr-21 20:59N 57°09' W 002°05'0 0.0
2017-Apr-21 20:29N 57°09' W 002°05'0 0.0
2017-Apr-21 19:59N 57°09' W 002°05'0 0.0
2017-Apr-21 19:29N 57°09' W 002°05'0 0.0
2017-Apr-21 18:59N 57°09' W 002°05'0 0.0
2017-Apr-21 18:29N 57°09' W 002°05'0 0.0
2017-Apr-21 17:59N 57°09' W 002°05'0 0.0
2017-Apr-21 17:29N 57°09' W 002°05'0 0.0
2017-Apr-21 16:59N 57°09' W 002°05'0 0.0
2017-Apr-21 16:29N 57°09' W 002°05'0 0.0
2017-Apr-21 15:59N 57°09' W 002°05'0 0.0
2017-Apr-21 15:29N 57°09' W 002°05'0 0.0
2017-Apr-21 14:59N 57°09' W 002°05'0 0.0
2017-Apr-21 13:23N 57°09' W 002°05'0 0.0
2017-Apr-21 12:59N 57°09' W 002°05'0 0.0
2017-Apr-21 12:29N 57°09' W 002°05'0 0.0
2017-Apr-21 11:59N 57°09' W 002°05'0 0.0
2017-Apr-21 11:29N 57°09' W 002°05'0 0.0
2017-Apr-21 10:59N 57°09' W 002°05'0 0.0
2017-Apr-21 10:29N 57°09' W 002°05'0 0.0
2017-Apr-21 09:59N 57°09' W 002°05'0 0.0
2017-Apr-21 09:29N 57°09' W 002°05'0 0.0
2017-Apr-21 08:59N 57°09' W 002°05'0 0.0
2017-Apr-21 08:29N 57°09' W 002°05'0 0.0
2017-Apr-21 07:50N 57°09' W 002°05'0 0.0
2017-Apr-21 07:29N 57°09' W 002°05'0 0.0
2017-Apr-21 06:59N 57°09' W 002°05'0 0.0
2017-Apr-21 06:29N 57°09' W 002°05'0 0.0
2017-Apr-21 05:59N 57°09' W 002°05'0 0.0
2017-Apr-21 05:29N 57°09' W 002°05'0 0.0
2017-Apr-21 04:56N 57°09' W 002°05'0 0.0
2017-Apr-21 04:29N 57°09' W 002°05'0 0.0
2017-Apr-21 03:59N 57°09' W 002°05'0 0.0
2017-Apr-21 03:29N 57°09' W 002°05'0 0.0
2017-Apr-21 02:59N 57°09' W 002°05'0 0.0
2017-Apr-21 02:29N 57°09' W 002°05'0 0.0
2017-Apr-21 01:59N 57°09' W 002°05'0 0.0
2017-Apr-21 01:26N 57°09' W 002°05'0 0.0
2017-Apr-21 00:59N 57°09' W 002°05'0 0.0
2017-Apr-21 00:29N 57°09' W 002°05'0 0.0
2017-Apr-20 23:56N 57°09' W 002°05'0 0.0
2017-Apr-20 23:29N 57°09' W 002°05'0 0.0
2017-Apr-20 22:59N 57°09' W 002°05'0 0.0
2017-Apr-20 22:29N 57°09' W 002°05'0 0.0
2017-Apr-20 21:59N 57°09' W 002°05'0 0.0
2017-Apr-20 21:29N 57°09' W 002°05'0 0.0
2017-Apr-20 20:59N 57°09' W 002°05'0 0.0
2017-Apr-20 20:29N 57°09' W 002°05'0 0.0
2017-Apr-20 19:59N 57°09' W 002°05'0 0.0
2017-Apr-20 19:29N 57°09' W 002°05'0 0.0
2017-Apr-20 18:59N 57°09' W 002°05'0 0.0
2017-Apr-20 18:29N 57°09' W 002°05'0 0.0
2017-Apr-20 17:59N 57°09' W 002°05'0 0.0
2017-Apr-20 17:29N 57°09' W 002°05'0 0.0
2017-Apr-20 16:59N 57°09' W 002°05'0 0.0
2017-Apr-20 16:29N 57°09' W 002°05'0 0.0
2017-Apr-20 15:59N 57°09' W 002°05'0 0.0
2017-Apr-20 15:29N 57°09' W 002°05'0 0.0
2017-Apr-20 14:59N 57°09' W 002°05'0 0.0
2017-Apr-20 13:59N 57°09' W 002°05'0 0.0
2017-Apr-20 13:29N 57°09' W 002°05'0 0.0
2017-Apr-20 12:59N 57°09' W 002°05'0 0.0
2017-Apr-20 12:29N 57°09' W 002°05'0 0.0
2017-Apr-20 11:59N 57°09' W 002°05'0 0.0
2017-Apr-20 11:30N 57°09' W 002°05'1 2.5
2017-Apr-20 11:00N 57°09' W 002°03'2 3.8
2017-Apr-20 10:30N 57°08' W 002°00'3 6.4
2017-Apr-20 10:00N 57°05' W 002°02'4 7.4
2017-Apr-20 09:30N 57°01' W 002°04'4 0.2
2017-Apr-19 11:22N 56°57' W 002°07'3 7.2
2017-Apr-19 11:00N 56°57' W 002°03'4 7.2
2017-Apr-19 10:30N 56°56' W 001°56'4 7.9
2017-Apr-19 10:00N 56°54' W 001°51'19 4.8
2017-Apr-19 06:00N 56°36' W 001°36'24 3.8 210 / 151032.910.8 7.6 3.9 7.7
2017-Apr-18 23:43N 56°12' W 001°33'1 5.3
2017-Apr-18 23:30N 56°11' W 001°33'3 5.3
2017-Apr-18 22:58N 56°08' W 001°33'14 7.3
2017-Apr-18 21:00N 55°54' W 001°30'4 3.0 170 / 181034.810.8 7.2 2.1
2017-Apr-18 19:40N 55°54' W 001°37'1 3.5
2017-Apr-18 19:22N 55°53' W 001°37'1 3.4
2017-Apr-18 18:57N 55°52' W 001°36'3 3.3
2017-Apr-18 18:10N 55°50' W 001°34'0 3.0
2017-Apr-18 18:00N 55°49' W 001°34'2 3.1
2017-Apr-18 17:30N 55°48' W 001°33'1 3.1
2017-Apr-18 17:00N 55°46' W 001°32'2 2.6
2017-Apr-18 16:25N 55°45' W 001°32'2 3.4
2017-Apr-18 15:53N 55°43' W 001°31'5 3.4
2017-Apr-18 14:30N 55°38' W 001°29'4 4.3
2017-Apr-18 13:30N 55°34' W 001°28'4 7.0
2017-Apr-18 13:00N 55°31' W 001°27'4 7.7
2017-Apr-18 12:30N 55°27' W 001°27'4 7.4
2017-Apr-18 12:00N 55°23' W 001°27'4 7.1
2017-Apr-18 11:31N 55°20' W 001°27'4 7.0
2017-Apr-18 11:00N 55°16' W 001°25'3 6.8
2017-Apr-18 10:30N 55°13' W 001°23'3 6.3
2017-Apr-18 10:00N 55°10' W 001°22'3 5.2
2017-Apr-18 09:30N 55°07' W 001°21'2 3.7
2017-Apr-18 09:00N 55°05' W 001°22'2 3.6
2017-Apr-18 08:30N 55°04' W 001°22'3 5.3
2017-Apr-18 08:00N 55°01' W 001°22'3 5.3
2017-Apr-18 07:30N 54°60' W 001°27'4 4.9
2017-Apr-18 06:44N 54°58' W 001°32'  
2017-Apr-15 13:14N 54°58' W 001°32'2 5.5
2017-Apr-15 12:48N 54°59' W 001°29'2 5.4
2017-Apr-15 12:23N 55°00' W 001°26'2 5.4
2017-Apr-15 12:01N 55°02' W 001°23'1 2.1
2017-Apr-15 11:31N 55°03' W 001°23'0 0.7
2017-Apr-15 11:00N 55°02' W 001°23'0 0.4
2017-Apr-15 10:30N 55°03' W 001°23'1 2.4
2017-Apr-15 10:00N 55°04' W 001°23'1 2.9
2017-Apr-15 09:30N 55°05' W 001°24'2 4.4
2017-Apr-15 09:00N 55°07' W 001°26'2 3.2
2017-Apr-15 08:30N 55°09' W 001°27'2 3.5
2017-Apr-15 08:00N 55°10' W 001°27'2 4.7
2017-Apr-15 07:30N 55°13' W 001°28'3 6.1
2017-Apr-15 07:00N 55°16' W 001°30'2 3.0
2017-Apr-15 06:29N 55°16' W 001°33'0 0.0
2017-Apr-15 05:59N 55°16' W 001°33'0 0.0
2017-Apr-15 05:29N 55°16' W 001°33'0 0.0
2017-Apr-15 04:59N 55°16' W 001°33'0 0.0
2017-Apr-15 04:29N 55°16' W 001°33'0 0.0
2017-Apr-15 03:59N 55°16' W 001°33'0 0.0
2017-Apr-15 03:29N 55°16' W 001°33'0 0.0
2017-Apr-15 02:58N 55°16' W 001°33'0 0.0
2017-Apr-15 02:28N 55°16' W 001°33'0 0.0
2017-Apr-15 01:58N 55°16' W 001°33'0 0.0
2017-Apr-15 01:28N 55°16' W 001°33'0 0.0
2017-Apr-15 00:58N 55°16' W 001°33'0 0.0
2017-Apr-15 00:28N 55°16' W 001°33'0 0.0
2017-Apr-14 23:58N 55°16' W 001°33'0 0.0
2017-Apr-14 23:28N 55°16' W 001°33'0 0.0
2017-Apr-14 22:58N 55°16' W 001°33'0 0.0
2017-Apr-14 22:28N 55°16' W 001°33'0 0.0
2017-Apr-14 21:58N 55°16' W 001°33'0 0.0
2017-Apr-14 21:28N 55°16' W 001°33'0 0.0
2017-Apr-14 20:58N 55°16' W 001°33'0 0.0
2017-Apr-14 20:28N 55°16' W 001°33'0 0.0
2017-Apr-14 19:58N 55°16' W 001°33'0 0.0
2017-Apr-14 19:28N 55°16' W 001°33'0 0.0
2017-Apr-14 18:58N 55°16' W 001°33'0 0.0
2017-Apr-14 18:28N 55°16' W 001°33'0 0.1
2017-Apr-14 18:01N 55°16' W 001°33'2 4.2
2017-Apr-14 17:31N 55°17' W 001°29'2 4.7
2017-Apr-14 17:01N 55°17' W 001°25'1 2.7
2017-Apr-14 16:31N 55°19' W 001°26'2 4.2
2017-Apr-14 16:00N 55°21' W 001°26'1 1.6
2017-Apr-14 15:30N 55°21' W 001°27'1 2.7
2017-Apr-14 15:00N 55°21' W 001°29'1 2.1
2017-Apr-14 14:31N 55°20' W 001°31'1 1.3
2017-Apr-14 13:31N 55°21' W 001°33'1 1.1
2017-Apr-14 12:58N 55°21' W 001°34'0 0.1
2017-Apr-14 12:28N 55°21' W 001°34'0 0.0
2017-Apr-14 11:58N 55°21' W 001°34'0 0.1
2017-Apr-14 11:28N 55°21' W 001°34'0 0.0
2017-Apr-14 10:58N 55°21' W 001°34'0 0.0
2017-Apr-14 10:28N 55°21' W 001°34'0 0.0
2017-Apr-14 09:58N 55°21' W 001°34'0 0.0
2017-Apr-14 09:28N 55°21' W 001°34'0 0.0
2017-Apr-14 08:58N 55°21' W 001°34'0 0.0
2017-Apr-14 08:28N 55°21' W 001°34'0 0.0
2017-Apr-14 07:58N 55°21' W 001°34'0 0.0
2017-Apr-14 07:28N 55°21' W 001°34'0 0.0
2017-Apr-14 06:58N 55°21' W 001°34'0 0.0
2017-Apr-14 06:28N 55°21' W 001°34'0 0.0
2017-Apr-14 05:58N 55°21' W 001°34'  
Track history (hours):
 
Tides and Currents Weather Stations Pressure Air Temp Water Temp Dewpoint Dewpoint Depression Visibility Wind Speed Wind Dir Waves Ship Positions

Lord Nelson (United Kingdom)

Ship's website: http://www.jst.org.uk/

Last reported at 2017-Apr-24 05:30 UTC. Time now 2017-Apr-24 05:31 UTC.
Position N 54°42' E 000°09'.

Length 54.7 m; beam 9 m; draft 4.1 m.

Type: Sailing vessel. MMSI: 232003690.

Date/timePositionNaut miles runAvg speedWind from/ knotsBaromVisibWave heightAir tempDewpointWater temp
2017-Apr-24 05:30N 54°42' E 000°09'4 8.6
2017-Apr-24 04:59N 54°46' E 000°06'4 8.9
2017-Apr-24 04:29N 54°50' E 000°03'4 8.9
2017-Apr-24 03:59N 54°54' W 000°01'135 8.2
2017-Apr-23 11:36N 56°55' W 001°44'3 8.7
2017-Apr-23 11:17N 56°58' W 001°47'3 8.7
2017-Apr-23 10:53N 57°01' W 001°51'4 8.7
2017-Apr-23 10:28N 57°04' W 001°54'4 8.6
2017-Apr-23 10:00N 57°07' W 001°57'4 8.0
2017-Apr-23 09:29N 57°09' W 002°04'1 1.3
2017-Apr-23 09:00N 57°09' W 002°05'0 0.0
2017-Apr-23 08:30N 57°09' W 002°05'0 0.0
2017-Apr-23 08:00N 57°09' W 002°05'0 0.0
2017-Apr-23 07:30N 57°09' W 002°05'0 0.0
2017-Apr-23 07:00N 57°09' W 002°05'0 0.0
2017-Apr-23 06:30N 57°09' W 002°05'0 0.0
2017-Apr-23 06:00N 57°09' W 002°05'0 0.0
2017-Apr-23 05:30N 57°09' W 002°05'0 0.0
2017-Apr-23 05:00N 57°09' W 002°05'0 0.0
2017-Apr-23 04:30N 57°09' W 002°05'0 0.0
2017-Apr-23 04:00N 57°09' W 002°05'0 0.0
2017-Apr-23 03:27N 57°09' W 002°05'0 0.0
2017-Apr-23 03:00N 57°09' W 002°05'0 0.0
2017-Apr-23 02:30N 57°09' W 002°05'0 0.0
2017-Apr-23 02:00N 57°09' W 002°05'0 0.0
2017-Apr-23 01:30N 57°09' W 002°05'0 0.0
2017-Apr-23 01:00N 57°09' W 002°05'0 0.0
2017-Apr-23 00:30N 57°09' W 002°05'0 0.0
2017-Apr-23 00:00N 57°09' W 002°05'0 0.0
2017-Apr-22 23:30N 57°09' W 002°05'0 0.0
2017-Apr-22 23:00N 57°09' W 002°05'0 0.0
2017-Apr-22 22:30N 57°09' W 002°05'0 0.0
2017-Apr-22 22:00N 57°09' W 002°05'0 0.0
2017-Apr-22 21:30N 57°09' W 002°05'0 0.0
2017-Apr-22 21:00N 57°09' W 002°05'0 0.0
2017-Apr-22 20:30N 57°09' W 002°05'0 0.0
2017-Apr-22 20:00N 57°09' W 002°05'0 0.0
2017-Apr-22 19:30N 57°09' W 002°05'0 0.0
2017-Apr-22 19:00N 57°09' W 002°05'0 0.0
2017-Apr-22 18:30N 57°09' W 002°05'0 0.0
2017-Apr-22 18:00N 57°09' W 002°05'0 0.0
2017-Apr-22 17:30N 57°09' W 002°05'0 0.0
2017-Apr-22 17:00N 57°09' W 002°05'0 0.0
2017-Apr-22 16:30N 57°09' W 002°05'0 0.0
2017-Apr-22 16:00N 57°09' W 002°05'0 0.0
2017-Apr-22 15:30N 57°09' W 002°05'0 0.0
2017-Apr-22 15:00N 57°09' W 002°05'0 0.0
2017-Apr-22 14:30N 57°09' W 002°05'0 0.0
2017-Apr-22 13:29N 57°09' W 002°05'0 0.0
2017-Apr-22 12:59N 57°09' W 002°05'0 0.0
2017-Apr-22 12:29N 57°09' W 002°05'0 0.0
2017-Apr-22 11:59N 57°09' W 002°05'0 0.0
2017-Apr-22 11:29N 57°09' W 002°05'0 0.0
2017-Apr-22 10:59N 57°09' W 002°05'0 0.0
2017-Apr-22 10:29N 57°09' W 002°05'0 0.0
2017-Apr-22 09:59N 57°09' W 002°05'0 0.0
2017-Apr-22 09:29N 57°09' W 002°05'0 0.0
2017-Apr-22 08:59N 57°09' W 002°05'0 0.0
2017-Apr-22 08:29N 57°09' W 002°05'0 0.0
2017-Apr-22 07:59N 57°09' W 002°05'0 0.0
2017-Apr-22 07:29N 57°09' W 002°05'0 0.0
2017-Apr-22 06:59N 57°09' W 002°05'0 0.0
2017-Apr-22 06:26N 57°09' W 002°05'0 0.0
2017-Apr-22 05:59N 57°09' W 002°05'0 0.0
2017-Apr-22 05:29N 57°09' W 002°05'0 0.0
2017-Apr-22 04:59N 57°09' W 002°05'0 0.0
2017-Apr-22 04:29N 57°09' W 002°05'0 0.0
2017-Apr-22 03:59N 57°09' W 002°05'0 0.0
2017-Apr-22 03:29N 57°09' W 002°05'0 0.0
2017-Apr-22 02:59N 57°09' W 002°05'0 0.0
2017-Apr-22 02:29N 57°09' W 002°05'0 0.0
2017-Apr-22 01:59N 57°09' W 002°05'0 0.0
2017-Apr-22 01:29N 57°09' W 002°05'0 0.0
2017-Apr-22 00:59N 57°09' W 002°05'0 0.0
2017-Apr-22 00:29N 57°09' W 002°05'0 0.0
2017-Apr-21 23:59N 57°09' W 002°05'0 0.0
2017-Apr-21 23:29N 57°09' W 002°05'0 0.0
2017-Apr-21 22:59N 57°09' W 002°05'0 0.0
2017-Apr-21 22:29N 57°09' W 002°05'0 0.0
2017-Apr-21 21:59N 57°09' W 002°05'0 0.0
2017-Apr-21 21:29N 57°09' W 002°05'0 0.0
2017-Apr-21 20:59N 57°09' W 002°05'0 0.0
2017-Apr-21 20:29N 57°09' W 002°05'0 0.0
2017-Apr-21 19:59N 57°09' W 002°05'0 0.0
2017-Apr-21 19:29N 57°09' W 002°05'0 0.0
2017-Apr-21 18:59N 57°09' W 002°05'0 0.0
2017-Apr-21 18:29N 57°09' W 002°05'0 0.0
2017-Apr-21 17:59N 57°09' W 002°05'0 0.0
2017-Apr-21 17:29N 57°09' W 002°05'0 0.0
2017-Apr-21 16:59N 57°09' W 002°05'0 0.0
2017-Apr-21 16:29N 57°09' W 002°05'0 0.0
2017-Apr-21 15:59N 57°09' W 002°05'0 0.0
2017-Apr-21 15:29N 57°09' W 002°05'0 0.0
2017-Apr-21 14:59N 57°09' W 002°05'0 0.0
2017-Apr-21 13:23N 57°09' W 002°05'0 0.0
2017-Apr-21 12:59N 57°09' W 002°05'0 0.0
2017-Apr-21 12:29N 57°09' W 002°05'0 0.0
2017-Apr-21 11:59N 57°09' W 002°05'0 0.0
2017-Apr-21 11:29N 57°09' W 002°05'0 0.0
2017-Apr-21 10:59N 57°09' W 002°05'0 0.0
2017-Apr-21 10:29N 57°09' W 002°05'0 0.0
2017-Apr-21 09:59N 57°09' W 002°05'0 0.0
2017-Apr-21 09:29N 57°09' W 002°05'0 0.0
2017-Apr-21 08:59N 57°09' W 002°05'0 0.0
2017-Apr-21 08:29N 57°09' W 002°05'0 0.0
2017-Apr-21 07:50N 57°09' W 002°05'0 0.0
2017-Apr-21 07:29N 57°09' W 002°05'0 0.0
2017-Apr-21 06:59N 57°09' W 002°05'0 0.0
2017-Apr-21 06:29N 57°09' W 002°05'0 0.0
2017-Apr-21 05:59N 57°09' W 002°05'0 0.0
2017-Apr-21 05:29N 57°09' W 002°05'0 0.0
2017-Apr-21 04:56N 57°09' W 002°05'0 0.0
2017-Apr-21 04:29N 57°09' W 002°05'0 0.0
2017-Apr-21 03:59N 57°09' W 002°05'0 0.0
2017-Apr-21 03:29N 57°09' W 002°05'0 0.0
2017-Apr-21 02:59N 57°09' W 002°05'0 0.0
2017-Apr-21 02:29N 57°09' W 002°05'0 0.0
2017-Apr-21 01:59N 57°09' W 002°05'0 0.0
2017-Apr-21 01:26N 57°09' W 002°05'0 0.0
2017-Apr-21 00:59N 57°09' W 002°05'0 0.0
2017-Apr-21 00:29N 57°09' W 002°05'0 0.0
2017-Apr-20 23:56N 57°09' W 002°05'0 0.0
2017-Apr-20 23:29N 57°09' W 002°05'0 0.0
2017-Apr-20 22:59N 57°09' W 002°05'0 0.0
2017-Apr-20 22:29N 57°09' W 002°05'0 0.0
2017-Apr-20 21:59N 57°09' W 002°05'0 0.0
2017-Apr-20 21:29N 57°09' W 002°05'0 0.0
2017-Apr-20 20:59N 57°09' W 002°05'0 0.0
2017-Apr-20 20:29N 57°09' W 002°05'0 0.0
2017-Apr-20 19:59N 57°09' W 002°05'0 0.0
2017-Apr-20 19:29N 57°09' W 002°05'0 0.0
2017-Apr-20 18:59N 57°09' W 002°05'0 0.0
2017-Apr-20 18:29N 57°09' W 002°05'0 0.0
2017-Apr-20 17:59N 57°09' W 002°05'0 0.0
2017-Apr-20 17:29N 57°09' W 002°05'0 0.0
2017-Apr-20 16:59N 57°09' W 002°05'0 0.0
2017-Apr-20 16:29N 57°09' W 002°05'0 0.0
2017-Apr-20 15:59N 57°09' W 002°05'0 0.0
2017-Apr-20 15:29N 57°09' W 002°05'0 0.0
2017-Apr-20 14:59N 57°09' W 002°05'0 0.0
2017-Apr-20 13:59N 57°09' W 002°05'0 0.0
2017-Apr-20 13:29N 57°09' W 002°05'0 0.0
2017-Apr-20 12:59N 57°09' W 002°05'0 0.0
2017-Apr-20 12:29N 57°09' W 002°05'0 0.0
2017-Apr-20 11:59N 57°09' W 002°05'0 0.0
2017-Apr-20 11:30N 57°09' W 002°05'1 2.5
2017-Apr-20 11:00N 57°09' W 002°03'2 3.8
2017-Apr-20 10:30N 57°08' W 002°00'3 6.4
2017-Apr-20 10:00N 57°05' W 002°02'4 7.4
2017-Apr-20 09:30N 57°01' W 002°04'4 0.2
2017-Apr-19 11:22N 56°57' W 002°07'3 7.2
2017-Apr-19 11:00N 56°57' W 002°03'4 7.2
2017-Apr-19 10:30N 56°56' W 001°56'4 7.9
2017-Apr-19 10:00N 56°54' W 001°51'19 4.8
2017-Apr-19 06:00N 56°36' W 001°36'24 3.8 210 / 151032.910.8 7.6 3.9 7.7
2017-Apr-18 23:43N 56°12' W 001°33'1 5.3
2017-Apr-18 23:30N 56°11' W 001°33'3 5.3
2017-Apr-18 22:58N 56°08' W 001°33'14 7.3
2017-Apr-18 21:00N 55°54' W 001°30'4 3.0 170 / 181034.810.8 7.2 2.1
2017-Apr-18 19:40N 55°54' W 001°37'1 3.5
2017-Apr-18 19:22N 55°53' W 001°37'1 3.4
2017-Apr-18 18:57N 55°52' W 001°36'3 3.3
2017-Apr-18 18:10N 55°50' W 001°34'0 3.0
2017-Apr-18 18:00N 55°49' W 001°34'2 3.1
2017-Apr-18 17:30N 55°48' W 001°33'1 3.1
2017-Apr-18 17:00N 55°46' W 001°32'2 2.6
2017-Apr-18 16:25N 55°45' W 001°32'2 3.4
2017-Apr-18 15:53N 55°43' W 001°31'5 3.4
2017-Apr-18 14:30N 55°38' W 001°29'4 4.3
2017-Apr-18 13:30N 55°34' W 001°28'4 7.0
2017-Apr-18 13:00N 55°31' W 001°27'4 7.7
2017-Apr-18 12:30N 55°27' W 001°27'4 7.4
2017-Apr-18 12:00N 55°23' W 001°27'4 7.1
2017-Apr-18 11:31N 55°20' W 001°27'4 7.0
2017-Apr-18 11:00N 55°16' W 001°25'3 6.8
2017-Apr-18 10:30N 55°13' W 001°23'3 6.3
2017-Apr-18 10:00N 55°10' W 001°22'3 5.2
2017-Apr-18 09:30N 55°07' W 001°21'2 3.7
2017-Apr-18 09:00N 55°05' W 001°22'2 3.6
2017-Apr-18 08:30N 55°04' W 001°22'3 5.3
2017-Apr-18 08:00N 55°01' W 001°22'3 5.3
2017-Apr-18 07:30N 54°60' W 001°27'4 4.9
2017-Apr-18 06:44N 54°58' W 001°32'  
2017-Apr-15 13:14N 54°58' W 001°32'2 5.5
2017-Apr-15 12:48N 54°59' W 001°29'2 5.4
2017-Apr-15 12:23N 55°00' W 001°26'2 5.4
2017-Apr-15 12:01N 55°02' W 001°23'1 2.1
2017-Apr-15 11:31N 55°03' W 001°23'0 0.7
2017-Apr-15 11:00N 55°02' W 001°23'0 0.4
2017-Apr-15 10:30N 55°03' W 001°23'1 2.4
2017-Apr-15 10:00N 55°04' W 001°23'1 2.9
2017-Apr-15 09:30N 55°05' W 001°24'2 4.4
2017-Apr-15 09:00N 55°07' W 001°26'2 3.2
2017-Apr-15 08:30N 55°09' W 001°27'2 3.5
2017-Apr-15 08:00N 55°10' W 001°27'2 4.7
2017-Apr-15 07:30N 55°13' W 001°28'3 6.1
2017-Apr-15 07:00N 55°16' W 001°30'2 3.0
2017-Apr-15 06:29N 55°16' W 001°33'0 0.0
2017-Apr-15 05:59N 55°16' W 001°33'0 0.0
2017-Apr-15 05:29N 55°16' W 001°33'0 0.0
2017-Apr-15 04:59N 55°16' W 001°33'0 0.0
2017-Apr-15 04:29N 55°16' W 001°33'0 0.0
2017-Apr-15 03:59N 55°16' W 001°33'0 0.0
2017-Apr-15 03:29N 55°16' W 001°33'0 0.0
2017-Apr-15 02:58N 55°16' W 001°33'0 0.0
2017-Apr-15 02:28N 55°16' W 001°33'0 0.0
2017-Apr-15 01:58N 55°16' W 001°33'0 0.0
2017-Apr-15 01:28N 55°16' W 001°33'0 0.0
2017-Apr-15 00:58N 55°16' W 001°33'0 0.0
2017-Apr-15 00:28N 55°16' W 001°33'0 0.0
2017-Apr-14 23:58N 55°16' W 001°33'0 0.0
2017-Apr-14 23:28N 55°16' W 001°33'0 0.0
2017-Apr-14 22:58N 55°16' W 001°33'0 0.0
2017-Apr-14 22:28N 55°16' W 001°33'0 0.0
2017-Apr-14 21:58N 55°16' W 001°33'0 0.0
2017-Apr-14 21:28N 55°16' W 001°33'0 0.0
2017-Apr-14 20:58N 55°16' W 001°33'0 0.0
2017-Apr-14 20:28N 55°16' W 001°33'0 0.0
2017-Apr-14 19:58N 55°16' W 001°33'0 0.0
2017-Apr-14 19:28N 55°16' W 001°33'0 0.0
2017-Apr-14 18:58N 55°16' W 001°33'0 0.0
2017-Apr-14 18:28N 55°16' W 001°33'0 0.1
2017-Apr-14 18:01N 55°16' W 001°33'2 4.2
2017-Apr-14 17:31N 55°17' W 001°29'2 4.7
2017-Apr-14 17:01N 55°17' W 001°25'1 2.7
2017-Apr-14 16:31N 55°19' W 001°26'2 4.2
2017-Apr-14 16:00N 55°21' W 001°26'1 1.6
2017-Apr-14 15:30N 55°21' W 001°27'1 2.7
2017-Apr-14 15:00N 55°21' W 001°29'1 2.1
2017-Apr-14 14:31N 55°20' W 001°31'1 1.3
2017-Apr-14 13:31N 55°21' W 001°33'1 1.1
2017-Apr-14 12:58N 55°21' W 001°34'0 0.1
2017-Apr-14 12:28N 55°21' W 001°34'0 0.0
2017-Apr-14 11:58N 55°21' W 001°34'0 0.1
2017-Apr-14 11:28N 55°21' W 001°34'0 0.0
2017-Apr-14 10:58N 55°21' W 001°34'0 0.0
2017-Apr-14 10:28N 55°21' W 001°34'0 0.0
2017-Apr-14 09:58N 55°21' W 001°34'0 0.0
2017-Apr-14 09:28N 55°21' W 001°34'0 0.0
2017-Apr-14 08:58N 55°21' W 001°34'0 0.0
2017-Apr-14 08:28N 55°21' W 001°34'0 0.0
2017-Apr-14 07:58N 55°21' W 001°34'0 0.0
2017-Apr-14 07:28N 55°21' W 001°34'0 0.0
2017-Apr-14 06:58N 55°21' W 001°34'0 0.0
2017-Apr-14 06:28N 55°21' W 001°34'0 0.0
2017-Apr-14 05:58N 55°21' W 001°34'  

Dump ship's entire track history